Time;durP1;ratioP1;P1;durP2;ratioP2;P2;SDS_P1;SDS_P2;PMS_P1;PMS_P2;Temp;Humidity;BMP_temperature;BMP_pressure;BME280_temperature;BME280_humidity;BME280_pressure;Samples;Min_cycle;Max_cycle;Signal;HPM_P1;HPM_P2
2024/02/11 00:07:45;;;;;;;21.15;15.93;;;10.70;99.90;;;;;;20672202;28;23474;-41
2024/02/11 00:17:46;;;;;;;25.80;17.17;;;10.70;99.90;;;;;;20676851;28;20068;-41
2024/02/11 00:27:50;;;;;;;20.23;15.30;;;10.60;99.90;;;;;;20678218;28;20065;-41
2024/02/11 00:37:51;;;;;;;22.35;15.13;;;10.60;99.90;;;;;;20694440;28;20299;-41
2024/02/11 00:47:52;;;;;;;23.15;17.17;;;10.60;99.90;;;;;;20697429;28;20034;-41
2024/02/11 00:57:54;;;;;;;28.00;17.90;;;10.50;99.90;;;;;;20689967;28;20064;-41
2024/02/11 01:07:54;;;;;;;24.40;15.90;;;10.50;99.90;;;;;;20694868;28;20425;-41
2024/02/11 01:17:55;;;;;;;24.70;17.88;;;10.40;99.90;;;;;;20692481;28;20050;-41
2024/02/11 01:27:56;;;;;;;22.05;16.33;;;10.40;99.90;;;;;;20704540;28;20045;-41
2024/02/11 01:37:56;;;;;;;26.80;18.00;;;10.40;99.90;;;;;;20682454;28;20496;-41
2024/02/11 01:47:57;;;;;;;22.42;17.05;;;10.40;99.90;;;;;;20691614;28;20495;-41
2024/02/11 01:57:59;;;;;;;23.92;16.35;;;10.40;99.90;;;;;;20689180;28;20593;-41
2024/02/11 02:08:03;;;;;;;22.05;16.17;;;10.40;99.90;;;;;;20671323;28;20121;-41
2024/02/11 02:18:04;;;;;;;22.92;16.60;;;10.40;99.90;;;;;;20685752;28;20482;-41
2024/02/11 02:28:05;;;;;;;25.52;17.95;;;10.30;99.90;;;;;;20686220;28;20466;-41
2024/02/11 02:38:06;;;;;;;26.80;17.88;;;10.30;99.90;;;;;;20683778;28;20058;-41
2024/02/11 02:48:06;;;;;;;24.20;16.17;;;10.30;99.90;;;;;;20686317;28;20128;-41
2024/02/11 02:58:13;;;;;;;25.27;17.83;;;10.30;99.90;;;;;;20681324;28;20123;-41
2024/02/11 03:08:14;;;;;;;23.83;16.23;;;10.30;99.90;;;;;;20682525;28;20029;-41
2024/02/11 03:18:14;;;;;;;21.00;14.57;;;10.20;99.90;;;;;;20673404;28;20036;-41
2024/02/11 03:28:16;;;;;;;22.30;15.38;;;10.10;99.90;;;;;;20681489;28;20050;-41
2024/02/11 03:38:18;;;;;;;23.30;16.10;;;10.10;99.90;;;;;;19084908;23;20043;-77
2024/02/11 03:48:19;;;;;;;24.27;17.33;;;10.10;99.90;;;;;;20570595;28;20068;-78
2024/02/11 03:58:20;;;;;;;23.65;15.73;;;10.20;99.90;;;;;;20585058;28;20039;-79
2024/02/11 04:08:24;;;;;;;21.60;15.18;;;10.10;99.90;;;;;;20560607;28;20102;-79
2024/02/11 04:18:25;;;;;;;21.38;15.45;;;10.00;99.90;;;;;;20578411;28;20505;-77
2024/02/11 04:28:28;;;;;;;21.60;14.63;;;10.10;99.90;;;;;;20583773;28;20031;-77
2024/02/11 04:38:29;;;;;;;25.52;17.30;;;10.10;99.90;;;;;;20548264;28;20058;-77
2024/02/11 04:48:32;;;;;;;23.57;16.03;;;10.10;99.90;;;;;;20538046;28;20090;-82
2024/02/11 04:58:34;;;;;;;20.85;14.27;;;10.10;99.90;;;;;;20559166;28;20047;-81
2024/02/11 05:08:35;;;;;;;25.42;16.55;;;10.00;99.90;;;;;;20549670;28;20031;-82
2024/02/11 05:18:38;;;;;;;24.70;16.63;;;10.00;99.90;;;;;;20536079;28;20054;-81
2024/02/11 05:28:40;;;;;;;29.15;18.90;;;10.10;99.90;;;;;;20553193;28;20419;-80
2024/02/11 05:38:40;;;;;;;22.92;15.98;;;10.10;99.90;;;;;;20569242;28;20038;-83
2024/02/11 05:48:41;;;;;;;27.40;17.33;;;10.00;99.90;;;;;;20553522;28;20055;-81
2024/02/11 05:58:42;;;;;;;28.45;18.83;;;10.10;99.90;;;;;;20549883;28;20046;-82
2024/02/11 06:08:42;;;;;;;32.92;21.70;;;10.10;99.90;;;;;;20560350;28;20035;-81
2024/02/11 06:18:43;;;;;;;34.08;22.00;;;10.10;99.90;;;;;;20567339;28;20058;-81
2024/02/11 06:28:44;;;;;;;12.43;8.25;;;10.30;99.90;;;;;;20570309;28;20035;-82
2024/02/11 06:38:45;;;;;;;9.93;4.55;;;10.10;99.90;;;;;;20552162;28;20040;-82
2024/02/11 06:48:46;;;;;;;9.98;6.55;;;9.80;99.90;;;;;;20584218;28;20054;-83
2024/02/11 06:58:47;;;;;;;14.32;7.78;;;9.50;99.90;;;;;;20569339;28;20055;-80
2024/02/11 07:08:49;;;;;;;17.00;7.72;;;9.50;99.90;;;;;;20570376;28;20038;-80
2024/02/11 07:18:50;;;;;;;18.70;10.60;;;9.40;99.90;;;;;;20605682;28;20045;-80
2024/02/11 07:28:50;;;;;;;18.45;9.68;;;9.30;99.90;;;;;;20618463;23;20042;-39
2024/02/11 07:38:51;;;;;;;12.85;6.85;;;9.30;99.90;;;;;;20577408;28;20505;-41
2024/02/11 07:48:52;;;;;;;9.48;5.07;;;9.30;99.90;;;;;;20548136;28;20050;-41
2024/02/11 07:58:52;;;;;;;10.73;5.40;;;9.20;99.90;;;;;;20549719;28;20105;-41
2024/02/11 08:08:54;;;;;;;11.73;6.50;;;9.10;99.90;;;;;;20550236;28;20053;-41
2024/02/11 08:18:54;;;;;;;15.98;9.07;;;9.00;99.90;;;;;;20544905;28;20034;-41
2024/02/11 08:28:59;;;;;;;18.02;9.85;;;8.90;99.90;;;;;;20543022;28;20533;-41
2024/02/11 08:39:02;;;;;;;18.17;9.93;;;9.00;99.90;;;;;;20563036;28;20050;-41
2024/02/11 08:49:03;;;;;;;23.60;9.55;;;8.90;99.90;;;;;;20560542;28;20106;-41
2024/02/11 08:59:04;;;;;;;20.13;9.50;;;8.90;99.90;;;;;;20580422;28;20137;-41
2024/02/11 09:09:06;;;;;;;21.08;10.07;;;9.10;99.90;;;;;;20585228;28;20431;-41
2024/02/11 09:19:06;;;;;;;24.83;11.55;;;9.10;99.90;;;;;;20581150;28;20154;-41
2024/02/11 09:29:07;;;;;;;26.52;11.43;;;9.10;99.90;;;;;;20578702;28;20109;-41
2024/02/11 09:39:12;;;;;;;30.42;12.88;;;9.20;99.90;;;;;;20549908;28;20117;-41
2024/02/11 09:49:21;;;;;;;30.85;14.75;;;9.20;99.90;;;;;;20582542;28;20500;-41
2024/02/11 09:59:26;;;;;;;28.95;15.90;;;9.30;99.90;;;;;;20584612;28;20171;-41
2024/02/11 10:09:27;;;;;;;31.13;15.27;;;9.40;99.90;;;;;;20589033;28;20147;-41
2024/02/11 10:19:28;;;;;;;35.33;16.13;;;9.60;99.90;;;;;;20584458;28;20042;-41
2024/02/11 10:29:29;;;;;;;31.13;16.15;;;9.90;99.90;;;;;;20586954;28;20056;-41
2024/02/11 10:39:30;;;;;;;27.83;14.05;;;10.00;99.90;;;;;;20588918;28;20057;-41
2024/02/11 10:49:31;;;;;;;30.42;15.07;;;9.90;87.10;;;;;;20582659;28;20648;-41
2024/02/11 10:59:37;;;;;;;28.88;15.40;;;9.90;88.00;;;;;;20576878;28;20043;-41
2024/02/11 11:09:39;;;;;;;31.23;14.20;;;9.90;93.10;;;;;;20564525;28;20089;-41
2024/02/11 11:19:46;;;;;;;32.83;16.13;;;9.90;75.70;;;;;;20570819;28;20045;-41
2024/02/11 11:29:52;;;;;;;32.17;15.38;;;9.80;87.60;;;;;;20582842;28;20077;-41
2024/02/11 11:39:54;;;;;;;33.63;16.48;;;10.00;78.80;;;;;;20577704;28;20045;-41
2024/02/11 11:49:55;;;;;;;34.97;18.10;;;10.00;85.70;;;;;;20560235;28;20043;-41
2024/02/11 11:59:57;;;;;;;38.38;17.77;;;10.00;68.50;;;;;;20564022;28;20519;-41
2024/02/11 12:09:57;;;;;;;44.22;20.13;;;10.00;67.20;;;;;;20557797;28;20039;-39
2024/02/11 12:20:00;;;;;;;38.58;18.70;;;10.20;62.90;;;;;;20548013;28;20800;-41
2024/02/11 12:30:01;;;;;;;30.65;16.42;;;10.30;58.80;;;;;;20563478;28;20054;-40
2024/02/11 12:40:01;;;;;;;35.63;16.67;;;10.30;63.80;;;;;;20568323;28;20065;-41
2024/02/11 12:50:03;;;;;;;39.83;16.93;;;10.30;60.70;;;;;;20568881;28;20038;-41
2024/02/11 13:00:04;;;;;;;35.15;18.27;;;10.40;48.40;;;;;;20567308;28;20052;-41
2024/02/11 13:10:11;;;;;;;33.60;17.35;;;10.40;48.20;;;;;;20560961;28;20053;-41
2024/02/11 13:20:13;;;;;;;28.15;14.93;;;10.40;49.90;;;;;;20554712;28;20605;-41
2024/02/11 13:30:14;;;;;;;29.08;14.98;;;10.40;44.40;;;;;;20575761;28;20053;-41
2024/02/11 13:40:15;;;;;;;30.60;15.00;;;10.30;42.50;;;;;;20535049;28;20042;-41
2024/02/11 13:50:16;;;;;;;23.45;12.23;;;10.30;57.30;;;;;;20557485;28;20040;-40
2024/02/11 14:00:18;;;;;;;19.77;9.45;;;10.30;61.90;;;;;;20501023;28;20064;-40
2024/02/11 14:10:20;;;;;;;17.15;7.38;;;10.40;40.10;;;;;;20560777;28;20042;-41
2024/02/11 14:20:21;;;;;;;12.23;5.97;;;10.60;47.60;;;;;;20563987;28;20043;-41
2024/02/11 14:30:22;;;;;;;9.18;3.28;;;10.70;28.30;;;;;;20570938;28;20049;-40
2024/02/11 14:40:23;;;;;;;4.72;2.22;;;10.70;21.90;;;;;;20542312;28;20053;-41
2024/02/11 14:50:24;;;;;;;9.75;3.38;;;10.70;18.10;;;;;;20555511;28;20095;-41
2024/02/11 15:00:29;;;;;;;9.88;4.40;;;10.50;24.10;;;;;;20533176;28;20042;-41
2024/02/11 15:10:29;;;;;;;12.95;6.32;;;10.50;31.20;;;;;;20551473;28;20078;-41
2024/02/11 15:20:31;;;;;;;12.23;6.60;;;10.60;32.60;;;;;;20541649;28;20586;-41
2024/02/11 15:30:31;;;;;;;12.40;6.57;;;10.60;30.40;;;;;;20549132;28;20593;-41
2024/02/11 15:40:32;;;;;;;11.00;6.70;;;10.50;40.90;;;;;;20540993;28;20968;-41
2024/02/11 15:50:34;;;;;;;12.65;7.05;;;10.30;60.80;;;;;;20545632;28;20460;-41
2024/02/11 16:00:35;;;;;;;16.33;7.90;;;10.20;79.90;;;;;;20553766;28;20042;-40
2024/02/11 16:10:36;;;;;;;13.63;7.65;;;10.10;91.00;;;;;;20565189;28;20053;-41
2024/02/11 16:20:37;;;;;;;14.90;8.25;;;10.00;99.90;;;;;;20564131;28;20034;-41
2024/02/11 16:30:38;;;;;;;14.77;8.17;;;9.80;99.90;;;;;;20556612;28;20054;-41
2024/02/11 16:40:38;;;;;;;15.73;8.80;;;9.80;99.90;;;;;;20541395;28;20840;-41
2024/02/11 16:50:39;;;;;;;16.55;8.70;;;9.70;99.90;;;;;;20571898;28;20046;-41
2024/02/11 17:00:39;;;;;;;14.93;9.13;;;9.60;99.90;;;;;;20574854;28;20097;-40
2024/02/11 17:10:41;;;;;;;16.15;8.52;;;9.60;99.90;;;;;;20576929;28;20066;-41
2024/02/11 17:20:41;;;;;;;16.70;9.15;;;9.50;99.90;;;;;;20584173;28;20038;-41
2024/02/11 17:30:42;;;;;;;15.68;8.57;;;9.40;99.90;;;;;;20570436;28;20030;-41
2024/02/11 17:40:46;;;;;;;19.13;12.35;;;9.40;99.90;;;;;;20563239;28;20050;-40
2024/02/11 17:50:51;;;;;;;25.30;13.95;;;9.30;99.90;;;;;;20552452;28;20054;-41
2024/02/11 18:00:52;;;;;;;27.77;15.00;;;9.30;99.90;;;;;;20564207;28;20066;-41
2024/02/11 18:10:52;;;;;;;30.85;16.13;;;9.40;99.90;;;;;;20553149;28;20049;-41
2024/02/11 18:20:53;;;;;;;24.92;15.18;;;9.50;99.90;;;;;;20561224;28;20402;-41
2024/02/11 18:30:54;;;;;;;30.73;16.27;;;9.50;99.90;;;;;;20557892;28;20043;-41
2024/02/11 18:40:55;;;;;;;24.40;14.77;;;9.50;99.90;;;;;;20563775;28;20038;-41
2024/02/11 18:50:55;;;;;;;27.75;15.10;;;9.50;99.90;;;;;;20567012;28;20042;-40
2024/02/11 19:00:56;;;;;;;25.50;14.03;;;9.40;99.90;;;;;;20560066;28;20054;-41
2024/02/11 19:10:57;;;;;;;21.83;14.07;;;9.40;99.90;;;;;;20568311;28;20454;-41
2024/02/11 19:20:58;;;;;;;29.38;15.75;;;9.30;99.90;;;;;;20564916;28;20047;-41
2024/02/11 19:30:58;;;;;;;26.20;14.52;;;9.30;99.90;;;;;;20558859;28;20406;-41
2024/02/11 19:40:59;;;;;;;26.25;13.48;;;9.30;99.90;;;;;;20563379;28;20433;-41
2024/02/11 19:51:00;;;;;;;28.55;15.52;;;9.30;99.90;;;;;;20574974;28;20086;-41
2024/02/11 20:01:03;;;;;;;29.40;15.40;;;9.20;99.90;;;;;;20569364;28;20395;-41
2024/02/11 20:11:06;;;;;;;29.27;15.93;;;9.20;99.90;;;;;;20570656;28;20047;-41
2024/02/11 20:21:07;;;;;;;34.60;17.60;;;9.20;99.90;;;;;;20541360;28;20054;-41
2024/02/11 20:31:08;;;;;;;34.55;17.73;;;9.30;99.90;;;;;;20550753;28;20365;-40
2024/02/11 20:41:10;;;;;;;28.13;16.00;;;9.20;99.90;;;;;;20559442;28;20042;-41
2024/02/11 20:51:12;;;;;;;27.25;15.75;;;9.00;99.90;;;;;;20545271;28;20479;-40
2024/02/11 21:01:13;;;;;;;31.83;19.02;;;8.80;99.90;;;;;;20560945;28;20042;-40
2024/02/11 21:11:14;;;;;;;32.25;16.98;;;8.60;99.90;;;;;;20567995;28;20117;-40
2024/02/11 21:21:15;;;;;;;36.58;16.58;;;8.60;99.90;;;;;;20580153;28;20046;-41
2024/02/11 21:31:16;;;;;;;32.30;14.57;;;8.70;99.90;;;;;;20590603;28;20089;-41
2024/02/11 21:41:17;;;;;;;28.30;14.30;;;8.80;99.90;;;;;;20588268;28;20043;-40
2024/02/11 21:51:18;;;;;;;30.00;13.07;;;8.80;99.90;;;;;;20584318;28;20045;-40
2024/02/11 22:01:22;;;;;;;22.80;12.20;;;9.00;99.90;;;;;;20591264;28;20383;-40
2024/02/11 22:11:23;;;;;;;25.45;11.20;;;9.00;99.90;;;;;;20586260;28;20038;-40
2024/02/11 22:21:24;;;;;;;23.58;11.40;;;9.00;99.90;;;;;;20579027;28;20051;-41
2024/02/11 22:31:24;;;;;;;24.67;10.48;;;8.80;99.90;;;;;;20574688;28;20405;-40
2024/02/11 22:41:25;;;;;;;18.70;10.25;;;8.70;99.90;;;;;;20560042;28;20045;-40
2024/02/11 22:51:26;;;;;;;19.83;10.60;;;8.50;99.90;;;;;;20563509;28;20042;-41
2024/02/11 23:01:26;;;;;;;23.45;10.48;;;8.30;99.90;;;;;;20554392;28;20042;-40
2024/02/11 23:11:27;;;;;;;22.60;10.90;;;8.00;99.90;;;;;;20556643;28;20391;-40
2024/02/11 23:21:28;;;;;;;23.77;11.43;;;7.80;99.90;;;;;;20554058;28;20133;-40
2024/02/11 23:31:29;;;;;;;21.67;10.88;;;7.70;99.90;;;;;;20550304;28;20549;-40
2024/02/11 23:41:29;;;;;;;21.10;11.30;;;7.70;99.90;;;;;;20541815;28;20034;-40
2024/02/11 23:51:32;;;;;;;25.33;12.68;;;7.70;99.90;;;;;;20551963;28;20053;-40
